Time;durP1;ratioP1;P1;durP2;ratioP2;P2;SDS_P1;SDS_P2;PMS_P1;PMS_P2;Temp;Humidity;BMP_temperature;BMP_pressure;BME280_temperature;BME280_humidity;BME280_pressure;Samples;Min_cycle;Max_cycle;Signal;HPM_P1;HPM_P2
2022/11/14 00:00:01;;;;;;;8.37;6.60;;;;;;;;;;5049531;28;20213;-31
2022/11/14 00:02:28;;;;;;;9.77;7.30;;;;;;;;;;5036093;28;20225;-32
2022/11/14 00:04:55;;;;;;;10.97;7.80;;;;;;;;;;5033579;28;20206;-33
2022/11/14 00:07:22;;;;;;;11.70;7.83;;;;;;;;;;5035489;28;20209;-29
2022/11/14 00:09:49;;;;;;;12.00;7.30;;;;;;;;;;5060314;28;20206;-34
2022/11/14 00:12:18;;;;;;;12.70;6.80;;;;;;;;;;5046405;28;20206;-32
2022/11/14 00:14:45;;;;;;;9.63;6.90;;;;;;;;;;5045228;28;20213;-32
2022/11/14 00:17:12;;;;;;;9.83;6.97;;;;;;;;;;5034490;28;20210;-32
2022/11/14 00:19:39;;;;;;;7.77;5.87;;;;;;;;;;5037568;28;20210;-32
2022/11/14 00:22:06;;;;;;;10.63;7.00;;;;;;;;;;5047847;28;20232;-31
2022/11/14 00:24:33;;;;;;;8.23;6.73;;;;;;;;;;5043212;28;20297;-31
2022/11/14 00:27:00;;;;;;;9.57;7.00;;;;;;;;;;5042991;28;20198;-31
2022/11/14 00:29:29;;;;;;;7.70;5.60;;;;;;;;;;5047788;28;20216;-32
2022/11/14 00:31:56;;;;;;;9.97;6.57;;;;;;;;;;5045828;28;20230;-33
2022/11/14 00:34:23;;;;;;;8.33;6.63;;;;;;;;;;5041532;28;20240;-32
2022/11/14 00:36:50;;;;;;;10.13;7.80;;;;;;;;;;5044690;28;20205;-30
2022/11/14 00:39:17;;;;;;;11.73;7.63;;;;;;;;;;5047989;28;20217;-33
2022/11/14 00:41:44;;;;;;;10.90;7.83;;;;;;;;;;5040458;28;20226;-32
2022/11/14 00:44:12;;;;;;;13.07;7.70;;;;;;;;;;5048166;28;20199;-31
2022/11/14 00:46:40;;;;;;;15.17;9.20;;;;;;;;;;5041469;28;20207;-31
2022/11/14 00:49:08;;;;;;;13.87;9.70;;;;;;;;;;5040496;28;20259;-30
2022/11/14 00:51:35;;;;;;;14.53;9.43;;;;;;;;;;5040847;28;20235;-32
2022/11/14 00:54:02;;;;;;;14.83;9.23;;;;;;;;;;5045934;28;20218;-29
2022/11/14 00:56:29;;;;;;;15.50;8.57;;;;;;;;;;5049250;28;20206;-32
2022/11/14 00:58:56;;;;;;;12.17;7.87;;;;;;;;;;5046016;28;20216;-32
2022/11/14 01:01:23;;;;;;;10.70;7.27;;;;;;;;;;5048754;28;20232;-32
2022/11/14 01:03:52;;;;;;;14.07;8.77;;;;;;;;;;5045077;28;20198;-33
2022/11/14 01:06:20;;;;;;;16.73;9.13;;;;;;;;;;5045118;28;20205;-34
2022/11/14 01:08:47;;;;;;;12.63;8.37;;;;;;;;;;5047325;28;20212;-30
2022/11/14 01:11:17;;;;;;;13.03;7.33;;;;;;;;;;5045940;28;20226;-30
2022/11/14 01:13:45;;;;;;;11.63;8.33;;;;;;;;;;5052634;28;20230;-30
2022/11/14 01:16:12;;;;;;;13.17;8.57;;;;;;;;;;5050500;28;20206;-31
2022/11/14 01:18:40;;;;;;;11.83;8.17;;;;;;;;;;5048571;28;20292;-31
2022/11/14 01:21:09;;;;;;;14.77;8.63;;;;;;;;;;5045488;28;20538;-32
2022/11/14 01:23:37;;;;;;;13.73;9.07;;;;;;;;;;5041376;28;20194;-31
2022/11/14 01:26:04;;;;;;;14.93;9.60;;;;;;;;;;5040245;28;20200;-29
2022/11/14 01:28:31;;;;;;;13.20;8.70;;;;;;;;;;5039475;28;20206;-32
2022/11/14 01:31:07;;;;;;;11.53;8.73;;;;;;;;;;5062998;28;20234;-32
2022/11/14 01:33:34;;;;;;;13.83;9.20;;;;;;;;;;5046309;28;20220;-30
2022/11/14 01:36:01;;;;;;;11.50;8.50;;;;;;;;;;5053692;28;20206;-32
2022/11/14 01:38:30;;;;;;;11.37;8.23;;;;;;;;;;5042858;28;20300;-32
2022/11/14 01:40:57;;;;;;;16.23;9.03;;;;;;;;;;5042964;28;20241;-34
2022/11/14 01:43:28;;;;;;;14.80;8.80;;;;;;;;;;5049639;28;20201;-32
2022/11/14 01:45:57;;;;;;;13.17;8.63;;;;;;;;;;5054433;28;20214;-31
2022/11/14 01:48:26;;;;;;;12.03;7.77;;;;;;;;;;5039950;28;20296;-31
2022/11/14 01:50:55;;;;;;;10.70;7.80;;;;;;;;;;5031696;28;20322;-30
2022/11/14 01:53:22;;;;;;;12.03;7.83;;;;;;;;;;5037926;28;20230;-32
2022/11/14 01:55:51;;;;;;;10.77;7.57;;;;;;;;;;5039608;28;20213;-30
2022/11/14 01:58:18;;;;;;;13.43;8.33;;;;;;;;;;5048027;28;20674;-34
2022/11/14 02:00:45;;;;;;;10.50;7.30;;;;;;;;;;5044650;28;20333;-32
2022/11/14 02:03:14;;;;;;;9.53;7.43;;;;;;;;;;5050170;28;20228;-31
2022/11/14 02:05:41;;;;;;;10.03;8.13;;;;;;;;;;5050280;28;20206;-32
2022/11/14 02:08:10;;;;;;;11.50;8.40;;;;;;;;;;5051741;28;20209;-32
2022/11/14 02:10:37;;;;;;;12.60;7.97;;;;;;;;;;5050378;28;20307;-30
2022/11/14 02:13:07;;;;;;;10.83;7.97;;;;;;;;;;5046802;28;20226;-30
2022/11/14 02:15:34;;;;;;;10.80;7.17;;;;;;;;;;5043580;28;20672;-31
2022/11/14 02:18:02;;;;;;;9.93;7.47;;;;;;;;;;5034327;28;20210;-30
2022/11/14 02:20:32;;;;;;;13.27;8.47;;;;;;;;;;5047875;28;20218;-30
2022/11/14 02:22:59;;;;;;;9.97;7.23;;;;;;;;;;5051454;28;20244;-32
2022/11/14 02:25:26;;;;;;;10.63;7.63;;;;;;;;;;5050319;28;20212;-29
2022/11/14 02:27:54;;;;;;;11.13;7.70;;;;;;;;;;5040024;28;20206;-33
2022/11/14 02:30:22;;;;;;;10.80;7.93;;;;;;;;;;5049929;28;20226;-32
2022/11/14 02:32:49;;;;;;;12.57;8.07;;;;;;;;;;5042521;28;20216;-32
2022/11/14 02:35:16;;;;;;;11.53;7.90;;;;;;;;;;5051218;28;20205;-30
2022/11/14 02:37:45;;;;;;;10.30;7.80;;;;;;;;;;5051375;28;20216;-31
2022/11/14 02:40:12;;;;;;;11.50;7.63;;;;;;;;;;5054992;28;20317;-32
2022/11/14 02:42:39;;;;;;;11.00;7.13;;;;;;;;;;5040119;28;20207;-32
2022/11/14 02:45:07;;;;;;;10.10;7.53;;;;;;;;;;5046581;28;20206;-30
2022/11/14 02:47:34;;;;;;;9.40;7.50;;;;;;;;;;5047245;28;20214;-31
2022/11/14 02:50:01;;;;;;;9.80;7.23;;;;;;;;;;5049202;28;20297;-31
2022/11/14 02:52:28;;;;;;;7.13;6.30;;;;;;;;;;5031607;28;20260;-29
2022/11/14 02:54:57;;;;;;;10.20;6.77;;;;;;;;;;5050477;28;20321;-32
2022/11/14 02:57:24;;;;;;;7.57;5.97;;;;;;;;;;5040504;28;20209;-31
2022/11/14 02:59:51;;;;;;;12.37;7.90;;;;;;;;;;5038383;28;20211;-31
2022/11/14 03:02:18;;;;;;;10.43;7.00;;;;;;;;;;5045861;28;20206;-32
2022/11/14 03:04:45;;;;;;;8.93;6.77;;;;;;;;;;5050187;28;20308;-31
2022/11/14 03:07:13;;;;;;;10.60;7.10;;;;;;;;;;5055170;28;20210;-30
2022/11/14 03:09:40;;;;;;;9.70;7.00;;;;;;;;;;5057114;28;20686;-30
2022/11/14 03:12:08;;;;;;;9.27;6.80;;;;;;;;;;5040192;28;20222;-32
2022/11/14 03:14:35;;;;;;;8.43;6.27;;;;;;;;;;5049074;28;20786;-30
2022/11/14 03:17:03;;;;;;;9.00;6.67;;;;;;;;;;5046574;28;20208;-30
2022/11/14 03:19:30;;;;;;;7.97;6.33;;;;;;;;;;5032768;28;20206;-31
2022/11/14 03:21:57;;;;;;;9.23;6.77;;;;;;;;;;5030307;28;20233;-30
2022/11/14 03:24:24;;;;;;;7.43;6.17;;;;;;;;;;5036232;28;20678;-31
2022/11/14 03:26:51;;;;;;;10.27;6.60;;;;;;;;;;5040821;28;20257;-32
2022/11/14 03:29:20;;;;;;;6.70;5.83;;;;;;;;;;5048262;28;20216;-31
2022/11/14 03:31:47;;;;;;;7.30;5.67;;;;;;;;;;5050985;28;20240;-32
2022/11/14 03:34:14;;;;;;;8.53;6.27;;;;;;;;;;5044699;28;20222;-33
2022/11/14 03:36:41;;;;;;;11.13;6.97;;;;;;;;;;5044744;28;20206;-31
2022/11/14 03:39:08;;;;;;;7.70;6.13;;;;;;;;;;5037234;28;20567;-31
2022/11/14 03:41:35;;;;;;;8.43;6.70;;;;;;;;;;5029607;28;20230;-32
2022/11/14 03:44:03;;;;;;;6.70;6.00;;;;;;;;;;5038386;28;20202;-31
2022/11/14 03:46:31;;;;;;;8.10;6.13;;;;;;;;;;5044929;28;20206;-32
2022/11/14 03:48:58;;;;;;;8.30;6.50;;;;;;;;;;5038593;28;20203;-31
2022/11/14 03:51:25;;;;;;;6.17;5.57;;;;;;;;;;5041379;28;20222;-30
2022/11/14 03:53:52;;;;;;;6.80;5.97;;;;;;;;;;5039323;28;20236;-32
2022/11/14 03:56:20;;;;;;;6.77;5.10;;;;;;;;;;5053769;28;20202;-31
2022/11/14 03:58:47;;;;;;;8.43;6.50;;;;;;;;;;5035356;28;20216;-32
2022/11/14 04:01:14;;;;;;;7.30;5.63;;;;;;;;;;5042959;28;20317;-31
2022/11/14 04:03:42;;;;;;;7.63;6.23;;;;;;;;;;5037924;28;20282;-30
2022/11/14 04:06:10;;;;;;;6.50;5.73;;;;;;;;;;5028416;28;20270;-32
2022/11/14 04:08:37;;;;;;;7.90;6.03;;;;;;;;;;5048585;28;20209;-32
2022/11/14 04:11:04;;;;;;;6.83;5.73;;;;;;;;;;5041040;28;20308;-32
2022/11/14 04:13:31;;;;;;;6.07;5.40;;;;;;;;;;5051339;28;20205;-29
2022/11/14 04:15:58;;;;;;;6.90;5.30;;;;;;;;;;5049204;28;20205;-31
2022/11/14 04:18:26;;;;;;;9.20;5.57;;;;;;;;;;5037573;28;20210;-31
2022/11/14 04:20:54;;;;;;;7.87;5.53;;;;;;;;;;5037429;28;20222;-32
2022/11/14 04:23:22;;;;;;;5.87;5.10;;;;;;;;;;5037997;28;20206;-31
2022/11/14 04:25:49;;;;;;;5.93;5.03;;;;;;;;;;5048789;28;20639;-32
2022/11/14 04:28:16;;;;;;;8.13;4.83;;;;;;;;;;5039195;28;20201;-32
2022/11/14 04:30:44;;;;;;;6.13;5.37;;;;;;;;;;5050456;28;20235;-33
2022/11/14 04:33:12;;;;;;;5.80;5.13;;;;;;;;;;5029676;28;20209;-32
2022/11/14 04:35:39;;;;;;;7.40;5.33;;;;;;;;;;5037252;28;20226;-34
2022/11/14 04:38:08;;;;;;;6.63;5.03;;;;;;;;;;5041836;28;20294;-31
2022/11/14 04:40:35;;;;;;;6.70;5.43;;;;;;;;;;5038339;28;20236;-32
2022/11/14 04:43:02;;;;;;;7.87;5.53;;;;;;;;;;5030697;28;20206;-33
2022/11/14 04:45:29;;;;;;;6.57;5.70;;;;;;;;;;5059022;28;20486;-29
2022/11/14 04:47:56;;;;;;;6.53;5.43;;;;;;;;;;5041111;28;20209;-31
2022/11/14 04:50:23;;;;;;;5.83;5.23;;;;;;;;;;5044112;28;20240;-30
2022/11/14 04:55:20;;;;;;;5.23;4.73;;;;;;;;;;5050934;28;20308;-31
2022/11/14 04:57:47;;;;;;;5.87;5.10;;;;;;;;;;5052888;28;20218;-31
2022/11/14 05:00:17;;;;;;;7.27;5.40;;;;;;;;;;5044727;28;20229;-30
2022/11/14 05:02:44;;;;;;;6.93;5.37;;;;;;;;;;5030732;28;20210;-31
2022/11/14 05:05:11;;;;;;;6.57;5.00;;;;;;;;;;5019149;28;20285;-32
2022/11/14 05:07:38;;;;;;;6.70;5.17;;;;;;;;;;5020631;28;20207;-31
2022/11/14 05:10:05;;;;;;;6.60;5.03;;;;;;;;;;5030290;28;20223;-31
2022/11/14 05:12:34;;;;;;;6.93;5.77;;;;;;;;;;5032879;28;20203;-33
2022/11/14 05:15:01;;;;;;;5.80;5.23;;;;;;;;;;5019056;28;20223;-30
2022/11/14 05:17:28;;;;;;;7.33;5.30;;;;;;;;;;5028596;28;20207;-33
2022/11/14 05:19:56;;;;;;;7.40;5.63;;;;;;;;;;5026906;28;20290;-29
2022/11/14 05:22:23;;;;;;;6.00;5.20;;;;;;;;;;5019476;28;20203;-31
2022/11/14 05:24:50;;;;;;;6.07;5.20;;;;;;;;;;5029164;28;20209;-31
2022/11/14 05:27:17;;;;;;;9.87;5.00;;;;;;;;;;5031687;28;20205;-30
2022/11/14 05:29:46;;;;;;;6.03;4.60;;;;;;;;;;5027532;28;20211;-31
2022/11/14 05:32:13;;;;;;;7.57;5.30;;;;;;;;;;5030859;28;20382;-32
2022/11/14 05:34:40;;;;;;;8.17;5.17;;;;;;;;;;5032036;28;20222;-29
2022/11/14 05:37:07;;;;;;;8.67;5.73;;;;;;;;;;5026942;28;20407;-32
2022/11/14 05:39:34;;;;;;;7.70;4.93;;;;;;;;;;5025555;28;20211;-31
2022/11/14 05:42:01;;;;;;;5.47;4.77;;;;;;;;;;5031832;28;20314;-30
2022/11/14 05:44:29;;;;;;;6.80;4.80;;;;;;;;;;5028865;28;20206;-33
2022/11/14 05:46:57;;;;;;;7.07;4.60;;;;;;;;;;5026955;28;20294;-30
2022/11/14 05:49:24;;;;;;;6.60;4.80;;;;;;;;;;5031891;28;20211;-30
2022/11/14 05:51:51;;;;;;;5.93;4.97;;;;;;;;;;5032202;28;20320;-31
2022/11/14 05:54:18;;;;;;;5.73;4.37;;;;;;;;;;5037944;28;20233;-32
2022/11/14 05:56:46;;;;;;;5.93;5.00;;;;;;;;;;5051172;28;20202;-32
2022/11/14 05:59:13;;;;;;;7.17;4.50;;;;;;;;;;5046525;28;20208;-31
2022/11/14 06:01:40;;;;;;;5.47;4.80;;;;;;;;;;5050429;28;20312;-30
2022/11/14 06:04:08;;;;;;;6.43;5.57;;;;;;;;;;5052133;28;20293;-29
2022/11/14 06:06:36;;;;;;;5.60;4.90;;;;;;;;;;5051593;28;20259;-32
2022/11/14 06:09:03;;;;;;;9.83;4.97;;;;;;;;;;5040978;28;20206;-29
2022/11/14 06:11:30;;;;;;;5.50;4.43;;;;;;;;;;5050955;28;20221;-30
2022/11/14 06:13:57;;;;;;;7.37;5.00;;;;;;;;;;5046151;28;20300;-29
2022/11/14 06:16:24;;;;;;;6.37;4.87;;;;;;;;;;5045625;28;20206;-31
2022/11/14 06:18:53;;;;;;;6.60;4.70;;;;;;;;;;5051031;28;20290;-30
2022/11/14 06:21:22;;;;;;;5.47;4.97;;;;;;;;;;5046605;28;20232;-29
2022/11/14 06:23:50;;;;;;;6.23;5.03;;;;;;;;;;5038388;28;20678;-32
2022/11/14 06:26:20;;;;;;;6.80;5.10;;;;;;;;;;5050900;28;20233;-32
2022/11/14 06:28:48;;;;;;;6.97;5.50;;;;;;;;;;5044595;28;20202;-30
2022/11/14 06:31:15;;;;;;;7.63;6.40;;;;;;;;;;5047090;28;20229;-30
2022/11/14 06:33:42;;;;;;;8.47;6.43;;;;;;;;;;5050415;28;20297;-32
2022/11/14 06:36:10;;;;;;;8.80;6.80;;;;;;;;;;5050672;28;20226;-32
2022/11/14 06:38:39;;;;;;;9.80;6.73;;;;;;;;;;5044809;28;20238;-30
2022/11/14 06:41:07;;;;;;;6.57;5.23;;;;;;;;;;5052604;28;20695;-30
2022/11/14 06:43:34;;;;;;;7.70;5.93;;;;;;;;;;5046526;28;20199;-31
2022/11/14 06:46:01;;;;;;;8.27;6.27;;;;;;;;;;5052280;28;20236;-29
2022/11/14 06:48:29;;;;;;;9.07;6.67;;;;;;;;;;5049210;28;20216;-29
2022/11/14 06:51:02;;;;;;;7.37;6.23;;;;;;;;;;5052657;28;20244;-30
2022/11/14 06:53:30;;;;;;;6.10;5.30;;;;;;;;;;5045590;28;20297;-31
2022/11/14 06:55:59;;;;;;;6.30;5.20;;;;;;;;;;5052445;28;20256;-30
2022/11/14 06:58:27;;;;;;;7.70;6.13;;;;;;;;;;5048406;28;20359;-31
2022/11/14 07:00:55;;;;;;;7.97;6.20;;;;;;;;;;5043041;28;20259;-30
2022/11/14 07:03:22;;;;;;;8.87;6.40;;;;;;;;;;5052775;28;20202;-30
2022/11/14 07:05:49;;;;;;;7.47;6.27;;;;;;;;;;5052320;28;20296;-30
2022/11/14 07:08:16;;;;;;;8.47;6.23;;;;;;;;;;5048124;28;20209;-30
2022/11/14 07:10:43;;;;;;;6.23;5.17;;;;;;;;;;5043203;28;20309;-29
2022/11/14 07:13:12;;;;;;;7.60;5.77;;;;;;;;;;5049582;28;20283;-30
2022/11/14 07:15:39;;;;;;;7.70;6.20;;;;;;;;;;5051295;28;20225;-29
2022/11/14 07:18:10;;;;;;;10.03;5.20;;;;;;;;;;5052837;28;20237;-32
2022/11/14 07:20:37;;;;;;;7.20;5.50;;;;;;;;;;5051206;28;20218;-31
2022/11/14 07:23:04;;;;;;;8.57;6.07;;;;;;;;;;5045751;28;20297;-28
2022/11/14 07:25:31;;;;;;;6.13;5.00;;;;;;;;;;5049824;28;20280;-31
2022/11/14 07:27:58;;;;;;;7.67;5.53;;;;;;;;;;5051070;28;20286;-31
2022/11/14 07:30:27;;;;;;;15.63;5.73;;;;;;;;;;5041643;28;20226;-32
2022/11/14 07:32:57;;;;;;;5.93;5.00;;;;;;;;;;5044430;28;20232;-29
2022/11/14 07:35:24;;;;;;;11.23;5.93;;;;;;;;;;5056261;28;20468;-30
2022/11/14 07:37:52;;;;;;;8.10;5.90;;;;;;;;;;5048164;28;20202;-29
2022/11/14 07:40:19;;;;;;;6.90;5.17;;;;;;;;;;5039012;28;20233;-30
2022/11/14 07:42:46;;;;;;;5.67;4.93;;;;;;;;;;5039991;28;20212;-29
2022/11/14 07:45:14;;;;;;;8.63;5.63;;;;;;;;;;5038398;28;20932;-30
2022/11/14 07:47:43;;;;;;;5.50;5.00;;;;;;;;;;5049318;28;20256;-29
2022/11/14 07:50:10;;;;;;;5.73;4.90;;;;;;;;;;5050623;28;20290;-31
2022/11/14 07:52:37;;;;;;;8.47;6.73;;;;;;;;;;5042193;28;20723;-30
2022/11/14 07:55:05;;;;;;;7.17;5.07;;;;;;;;;;5044613;28;20240;-31
2022/11/14 07:57:32;;;;;;;5.00;4.10;;;;;;;;;;5048848;28;20202;-30
2022/11/14 07:59:59;;;;;;;5.57;4.97;;;;;;;;;;5042547;28;20210;-31
2022/11/14 08:02:26;;;;;;;7.07;5.60;;;;;;;;;;5046822;28;20206;-29
2022/11/14 08:04:55;;;;;;;5.10;4.60;;;;;;;;;;5047547;28;20206;-32
2022/11/14 08:07:22;;;;;;;6.03;5.17;;;;;;;;;;5047911;28;20229;-30
2022/11/14 08:09:49;;;;;;;7.10;5.43;;;;;;;;;;5047811;28;20202;-28
2022/11/14 08:12:16;;;;;;;7.03;5.40;;;;;;;;;;5050603;28;20210;-32
2022/11/14 08:14:44;;;;;;;5.63;5.00;;;;;;;;;;5045272;28;20206;-28
2022/11/14 08:17:11;;;;;;;6.23;5.43;;;;;;;;;;5050060;28;20594;-32
2022/11/14 08:19:41;;;;;;;6.93;5.90;;;;;;;;;;5054274;28;20202;-31
2022/11/14 08:22:09;;;;;;;6.10;5.30;;;;;;;;;;5035141;28;20222;-33
2022/11/14 08:24:37;;;;;;;7.40;5.93;;;;;;;;;;5062801;28;20202;-30
2022/11/14 08:27:04;;;;;;;8.03;5.77;;;;;;;;;;5055785;28;20208;-32
2022/11/14 08:29:31;;;;;;;7.37;5.83;;;;;;;;;;5044493;28;20301;-29
2022/11/14 08:31:58;;;;;;;5.70;5.17;;;;;;;;;;5055951;28;20222;-32
2022/11/14 08:34:25;;;;;;;8.43;6.23;;;;;;;;;;5051082;28;20218;-32
2022/11/14 08:36:52;;;;;;;7.20;6.17;;;;;;;;;;5049933;28;20241;-31
2022/11/14 08:39:21;;;;;;;6.63;5.93;;;;;;;;;;5055057;28;20205;-31
2022/11/14 08:41:48;;;;;;;8.40;5.93;;;;;;;;;;5055576;28;20222;-29
2022/11/14 08:44:15;;;;;;;6.87;5.47;;;;;;;;;;5047281;28;20309;-32
2022/11/14 08:46:42;;;;;;;6.73;5.80;;;;;;;;;;5049279;28;20204;-31
2022/11/14 08:49:09;;;;;;;7.07;5.80;;;;;;;;;;5055224;28;20213;-32
2022/11/14 08:51:37;;;;;;;7.30;6.17;;;;;;;;;;5054471;28;20235;-30
2022/11/14 08:54:04;;;;;;;8.47;7.17;;;;;;;;;;5053273;28;20222;-31
2022/11/14 08:56:32;;;;;;;8.97;7.03;;;;;;;;;;5055001;28;20271;-31
2022/11/14 08:59:00;;;;;;;7.80;6.43;;;;;;;;;;5051962;28;20214;-32
2022/11/14 09:01:27;;;;;;;9.60;6.57;;;;;;;;;;5047334;28;20316;-31
2022/11/14 09:03:54;;;;;;;7.43;6.00;;;;;;;;;;5047430;28;20202;-32
2022/11/14 09:06:21;;;;;;;8.70;5.80;;;;;;;;;;5051927;28;20288;-31
2022/11/14 09:08:48;;;;;;;11.37;6.97;;;;;;;;;;5047205;28;20211;-30
2022/11/14 09:11:15;;;;;;;9.53;7.23;;;;;;;;;;5055196;28;20230;-30
2022/11/14 09:13:44;;;;;;;8.07;5.70;;;;;;;;;;5052930;28;20206;-30
2022/11/14 09:16:11;;;;;;;7.33;6.10;;;;;;;;;;5045266;28;20228;-30
2022/11/14 09:18:38;;;;;;;10.77;7.40;;;;;;;;;;5053228;28;20210;-31
2022/11/14 09:21:06;;;;;;;9.63;6.63;;;;;;;;;;5055077;28;20229;-32
2022/11/14 09:23:34;;;;;;;9.30;6.60;;;;;;;;;;5041720;28;20206;-32
2022/11/14 09:26:04;;;;;;;11.10;8.60;;;;;;;;;;5054445;28;20210;-31
2022/11/14 09:28:31;;;;;;;14.70;11.00;;;;;;;;;;5048696;28;20210;-30
2022/11/14 09:31:02;;;;;;;17.70;12.07;;;;;;;;;;5054240;28;20252;-31
2022/11/14 09:33:29;;;;;;;16.23;8.27;;;;;;;;;;5054112;28;20243;-31
2022/11/14 09:35:59;;;;;;;13.03;8.13;;;;;;;;;;5051761;28;20232;-30
2022/11/14 09:38:26;;;;;;;11.33;7.03;;;;;;;;;;5045047;28;20289;-32
2022/11/14 09:41:01;;;;;;;11.10;7.33;;;;;;;;;;5054459;28;20312;-31
2022/11/14 09:43:35;;;;;;;9.30;7.10;;;;;;;;;;5051549;28;20280;-32
2022/11/14 09:46:04;;;;;;;12.17;7.37;;;;;;;;;;5047292;28;20206;-31
2022/11/14 09:48:31;;;;;;;11.10;7.50;;;;;;;;;;5051828;28;20232;-33
2022/11/14 09:51:05;;;;;;;9.53;7.50;;;;;;;;;;5054298;28;20691;-30
2022/11/14 09:53:34;;;;;;;11.80;8.73;;;;;;;;;;5046855;28;20214;-30
2022/11/14 09:56:02;;;;;;;9.83;7.00;;;;;;;;;;5046627;28;20301;-34
2022/11/14 09:58:29;;;;;;;11.00;7.93;;;;;;;;;;5046579;28;20301;-32
2022/11/14 10:00:59;;;;;;;10.77;7.70;;;;;;;;;;5049311;28;20222;-32
2022/11/14 10:03:34;;;;;;;12.67;7.17;;;;;;;;;;5053654;28;20309;-32
2022/11/14 10:06:12;;;;;;;10.37;7.47;;;;;;;;;;5051429;28;20206;-32
2022/11/14 10:08:45;;;;;;;16.60;8.67;;;;;;;;;;5043730;28;20205;-32
2022/11/14 10:11:14;;;;;;;11.67;7.40;;;;;;;;;;5053817;28;20367;-30
2022/11/14 10:13:53;;;;;;;11.47;6.73;;;;;;;;;;5045094;28;20305;-33
2022/11/14 10:16:24;;;;;;;10.40;7.60;;;;;;;;;;5044804;28;20245;-33
2022/11/14 10:19:00;;;;;;;10.57;7.03;;;;;;;;;;5054020;28;20649;-32
2022/11/14 10:21:34;;;;;;;11.57;7.97;;;;;;;;;;5054987;28;20294;-31
2022/11/14 10:24:06;;;;;;;13.37;8.20;;;;;;;;;;5053379;28;20208;-28
2022/11/14 10:26:37;;;;;;;9.73;6.63;;;;;;;;;;5054590;28;20220;-30
2022/11/14 10:29:23;;;;;;;8.93;6.40;;;;;;;;;;5039649;28;20208;-33
2022/11/14 10:31:54;;;;;;;16.77;9.10;;;;;;;;;;5051505;28;20217;-30
2022/11/14 10:34:27;;;;;;;11.10;6.63;;;;;;;;;;5051408;28;20296;-32
2022/11/14 10:36:58;;;;;;;9.63;6.57;;;;;;;;;;5048104;28;20230;-31
2022/11/14 10:39:30;;;;;;;12.03;7.43;;;;;;;;;;5049584;28;20208;-32
2022/11/14 10:42:00;;;;;;;12.30;8.67;;;;;;;;;;5052044;28;20251;-31
2022/11/14 10:44:30;;;;;;;12.83;8.80;;;;;;;;;;5044289;28;20213;-32
2022/11/14 10:47:01;;;;;;;14.23;8.83;;;;;;;;;;5043753;28;20209;-31
2022/11/14 10:49:32;;;;;;;17.10;9.87;;;;;;;;;;5052179;28;20258;-32
2022/11/14 10:52:00;;;;;;;13.57;8.67;;;;;;;;;;5052960;28;20236;-30
2022/11/14 10:54:31;;;;;;;14.80;8.33;;;;;;;;;;5134550;22;20222;-33
2022/11/14 10:56:58;;;;;;;15.80;8.37;;;;;;;;;;5078452;28;20227;-32
2022/11/14 10:59:26;;;;;;;14.03;7.53;;;;;;;;;;5078704;28;20295;-34
2022/11/14 11:01:55;;;;;;;7.33;5.23;;;;;;;;;;5054931;28;20236;-33
2022/11/14 11:04:25;;;;;;;12.10;6.10;;;;;;;;;;5053631;28;20206;-33
2022/11/14 11:06:54;;;;;;;8.23;4.37;;;;;;;;;;5048324;28;20196;-35
2022/11/14 11:12:08;;;;;;;3.83;3.20;;;;;;;;;;5053002;28;20225;-36
2022/11/14 11:14:36;;;;;;;7.00;4.90;;;;;;;;;;5046422;28;20206;-34
2022/11/14 11:17:17;;;;;;;4.07;1.23;;;;;;;;;;5052884;28;20468;-35
2022/11/14 11:19:46;;;;;;;1.67;1.23;;;;;;;;;;5047265;28;20195;-34
2022/11/14 11:22:37;;;;;;;1.47;1.37;;;;;;;;;;5045069;28;20264;-34
2022/11/14 11:25:22;;;;;;;1.00;0.90;;;;;;;;;;5031803;28;20472;-33
2022/11/14 11:28:04;;;;;;;2.17;1.13;;;;;;;;;;5042988;28;20202;-33
2022/11/14 11:30:31;;;;;;;1.00;0.90;;;;;;;;;;5044005;28;20232;-34
2022/11/14 11:33:15;;;;;;;2.10;1.10;;;;;;;;;;5052328;28;20220;-32
2022/11/14 11:35:43;;;;;;;1.60;1.20;;;;;;;;;;5053018;28;20194;-37
2022/11/14 11:38:12;;;;;;;1.70;1.30;;;;;;;;;;5047861;28;20456;-31
2022/11/14 11:40:43;;;;;;;1.00;1.00;;;;;;;;;;5049758;28;20230;-33
2022/11/14 11:43:13;;;;;;;1.77;1.30;;;;;;;;;;5049301;28;20249;-37
2022/11/14 11:45:41;;;;;;;0.80;0.80;;;;;;;;;;5050954;28;20210;-35
2022/11/14 11:48:10;;;;;;;1.10;1.10;;;;;;;;;;5050315;28;20198;-34
2022/11/14 11:50:38;;;;;;;3.30;1.00;;;;;;;;;;5049089;28;20237;-32
2022/11/14 11:53:11;;;;;;;1.27;1.10;;;;;;;;;;5047002;28;20296;-31
2022/11/14 11:55:41;;;;;;;1.40;1.17;;;;;;;;;;5051029;28;20210;-33
2022/11/14 11:58:13;;;;;;;1.93;1.40;;;;;;;;;;5048231;28;20241;-33
2022/11/14 12:00:40;;;;;;;1.37;1.10;;;;;;;;;;5043053;28;20244;-33
2022/11/14 12:03:12;;;;;;;1.70;1.60;;;;;;;;;;5052664;28;20202;-33
2022/11/14 12:05:44;;;;;;;1.97;1.80;;;;;;;;;;5050612;28;20217;-31
2022/11/14 12:08:13;;;;;;;3.07;1.53;;;;;;;;;;5042551;28;20209;-34
2022/11/14 12:10:41;;;;;;;2.47;1.50;;;;;;;;;;5049938;28;20232;-31
2022/11/14 12:13:22;;;;;;;2.33;1.43;;;;;;;;;;5042064;28;20206;-32
2022/11/14 12:15:55;;;;;;;3.60;1.60;;;;;;;;;;5043850;28;20212;-34
2022/11/14 12:18:35;;;;;;;1.50;1.40;;;;;;;;;;5049081;28;20221;-34
2022/11/14 12:21:13;;;;;;;1.67;1.40;;;;;;;;;;5050039;28;20225;-34
2022/11/14 12:23:58;;;;;;;1.43;1.33;;;;;;;;;;5047402;28;20205;-33
2022/11/14 12:26:33;;;;;;;1.60;1.37;;;;;;;;;;5045618;28;20205;-32
2022/11/14 12:29:12;;;;;;;1.67;1.17;;;;;;;;;;5039364;28;20221;-34
2022/11/14 12:31:40;;;;;;;2.67;1.73;;;;;;;;;;5049377;28;20737;-31
2022/11/14 12:34:13;;;;;;;2.30;1.50;;;;;;;;;;5046963;28;20206;-33
2022/11/14 12:36:41;;;;;;;3.43;1.70;;;;;;;;;;5047843;28;20304;-32
2022/11/14 12:39:21;;;;;;;1.50;1.23;;;;;;;;;;5051570;28;20301;-32
2022/11/14 12:41:48;;;;;;;1.47;1.30;;;;;;;;;;5046570;28;20224;-29
2022/11/14 12:44:31;;;;;;;1.80;1.53;;;;;;;;;;5040149;28;20276;-35
2022/11/14 12:47:12;;;;;;;2.70;1.77;;;;;;;;;;5045363;28;20198;-32
2022/11/14 12:49:57;;;;;;;2.10;1.47;;;;;;;;;;5047315;28;20206;-35
2022/11/14 12:52:43;;;;;;;1.83;1.20;;;;;;;;;;5050420;28;20186;-34
2022/11/14 12:55:25;;;;;;;1.13;1.03;;;;;;;;;;5044726;28;20220;-35
2022/11/14 12:57:58;;;;;;;1.60;1.10;;;;;;;;;;5031765;28;20230;-34
2022/11/14 13:00:27;;;;;;;2.27;1.20;;;;;;;;;;5041601;28;20233;-29
2022/11/14 13:03:13;;;;;;;1.50;1.40;;;;;;;;;;5049488;28;20220;-34
2022/11/14 13:05:54;;;;;;;2.03;1.20;;;;;;;;;;5052703;28;20205;-34
2022/11/14 13:08:34;;;;;;;4.57;1.30;;;;;;;;;;5040964;28;20237;-31
2022/11/14 13:11:01;;;;;;;1.13;1.10;;;;;;;;;;5045035;28;20236;-35
2022/11/14 13:22:19;;;;;;;1.23;1.13;;;;;;;;;;5041862;28;20240;-32
2022/11/14 13:25:05;;;;;;;4.30;1.23;;;;;;;;;;5043534;28;20210;-32
2022/11/14 13:27:32;;;;;;;1.47;1.37;;;;;;;;;;5053051;28;20197;-34
2022/11/14 13:30:01;;;;;;;1.70;1.10;;;;;;;;;;5040059;28;20293;-33
2022/11/14 13:33:02;;;;;;;1.07;1.07;;;;;;;;;;5043455;28;20210;-35
2022/11/14 13:35:46;;;;;;;2.53;1.30;;;;;;;;;;5047862;28;20205;-35
2022/11/14 13:38:22;;;;;;;1.67;1.30;;;;;;;;;;5043892;28;20221;-31
2022/11/14 13:40:54;;;;;;;1.30;1.20;;;;;;;;;;5046111;28;20218;-37
2022/11/14 13:43:25;;;;;;;1.13;1.03;;;;;;;;;;5047822;28;20210;-35
2022/11/14 13:46:00;;;;;;;1.33;1.20;;;;;;;;;;5045079;28;20292;-34
2022/11/14 13:48:42;;;;;;;1.67;1.57;;;;;;;;;;5051802;28;20202;-34
2022/11/14 13:51:13;;;;;;;1.67;1.30;;;;;;;;;;5049317;28;20232;-33
2022/11/14 13:53:41;;;;;;;2.30;1.50;;;;;;;;;;5041259;28;20217;-31
2022/11/14 13:56:14;;;;;;;1.70;1.43;;;;;;;;;;5051489;28;20214;-32
2022/11/14 13:58:54;;;;;;;1.37;1.23;;;;;;;;;;5047340;28;20415;-34
2022/11/14 14:01:29;;;;;;;1.20;1.10;;;;;;;;;;5041912;28;20235;-35
2022/11/14 14:04:06;;;;;;;2.17;1.50;;;;;;;;;;5051586;28;20292;-33
2022/11/14 14:06:41;;;;;;;2.17;1.10;;;;;;;;;;5051797;28;20210;-34
2022/11/14 14:09:13;;;;;;;1.70;1.23;;;;;;;;;;5036346;28;20213;-31
2022/11/14 14:11:46;;;;;;;1.60;1.50;;;;;;;;;;5041992;28;20236;-31
2022/11/14 14:14:20;;;;;;;1.63;1.40;;;;;;;;;;5047135;28;20208;-35
2022/11/14 14:16:51;;;;;;;1.77;1.67;;;;;;;;;;5050266;28;20217;-32
2022/11/14 14:19:20;;;;;;;3.33;1.80;;;;;;;;;;5050736;28;20205;-33
2022/11/14 14:21:53;;;;;;;1.73;1.40;;;;;;;;;;5044757;28;20225;-33
2022/11/14 14:24:38;;;;;;;2.30;1.30;;;;;;;;;;5049109;28;20210;-35
2022/11/14 14:27:11;;;;;;;1.40;1.30;;;;;;;;;;5049891;28;20213;-32
2022/11/14 14:29:43;;;;;;;3.07;1.90;;;;;;;;;;5039425;28;20240;-33
2022/11/14 14:32:12;;;;;;;1.70;1.30;;;;;;;;;;5049796;28;20202;-33
2022/11/14 14:34:40;;;;;;;3.23;1.47;;;;;;;;;;5051508;28;20224;-36
2022/11/14 14:37:16;;;;;;;1.60;1.50;;;;;;;;;;5050979;28;20229;-36
2022/11/14 14:39:55;;;;;;;1.63;1.43;;;;;;;;;;5046875;28;20198;-35
2022/11/14 14:42:23;;;;;;;1.57;1.47;;;;;;;;;;5052494;28;20214;-32
2022/11/14 14:45:00;;;;;;;1.70;1.60;;;;;;;;;;5046601;28;20212;-30
2022/11/14 14:47:38;;;;;;;2.10;1.90;;;;;;;;;;5050084;28;20208;-33
2022/11/14 14:50:08;;;;;;;1.63;1.50;;;;;;;;;;5049930;28;20233;-35
2022/11/14 14:52:38;;;;;;;1.80;1.63;;;;;;;;;;5053404;28;20212;-34
2022/11/14 14:55:07;;;;;;;1.67;1.53;;;;;;;;;;5045781;28;20285;-33
2022/11/14 14:57:34;;;;;;;1.93;1.57;;;;;;;;;;5050411;28;20229;-35
2022/11/14 15:00:02;;;;;;;1.50;1.40;;;;;;;;;;5037327;28;20218;-35
2022/11/14 15:02:29;;;;;;;2.03;1.80;;;;;;;;;;5047789;28;20210;-31
2022/11/14 15:04:58;;;;;;;1.73;1.50;;;;;;;;;;5050166;28;20210;-32